createdAt,value
2023-04-29T00:00:54.017Z,59.37
2023-04-29T00:05:55.318Z,58.60
2023-04-29T00:10:56.778Z,53.73
2023-04-29T00:15:58.144Z,51.07
2023-04-29T00:20:59.498Z,49.30
2023-04-29T00:26:00.981Z,50.87
2023-04-29T00:31:02.490Z,48.73
2023-04-29T00:36:04.126Z,57.17
2023-04-29T00:41:05.606Z,60.43
2023-04-29T00:46:06.965Z,62.83
2023-04-29T00:51:09.067Z,49.90
2023-04-29T00:56:10.731Z,57.50
2023-04-29T01:01:12.452Z,55.47
2023-04-29T01:06:44.526Z,59.63
2023-04-29T01:12:03.371Z,63.80
2023-04-29T01:17:15.029Z,63.87
2023-04-29T01:22:21.115Z,59.47
2023-04-29T01:27:49.086Z,64.30
2023-04-29T01:33:32.870Z,54.27
2023-04-29T01:38:58.350Z,60.37
2023-04-29T01:44:03.615Z,65.00
2023-04-29T01:49:06.980Z,57.63
2023-04-29T01:54:08.913Z,48.03
2023-04-29T01:59:11.193Z,50.83
2023-04-29T02:04:33.132Z,35.70
2023-04-29T02:09:34.872Z,41.80
2023-04-29T02:14:43.161Z,41.63
2023-04-29T02:19:44.978Z,39.07
2023-04-29T02:24:46.771Z,37.00
2023-04-29T02:29:48.050Z,38.90
2023-04-29T02:34:49.701Z,34.30
2023-04-29T02:39:51.876Z,34.13
2023-04-29T02:44:53.860Z,36.43
2023-04-29T02:49:55.308Z,34.37
2023-04-29T02:54:56.745Z,33.07
2023-04-29T02:59:58.171Z,28.73
2023-04-29T03:04:59.546Z,28.47
2023-04-29T03:10:01.020Z,29.07
2023-04-29T03:15:03.013Z,29.90
2023-04-29T03:20:05.652Z,29.40
2023-04-29T03:25:09.734Z,33.87
2023-04-29T03:30:13.019Z,30.20
2023-04-29T03:35:21.133Z,31.00
2023-04-29T03:40:45.372Z,28.57
2023-04-29T03:45:46.730Z,31.47
2023-04-29T03:50:52.259Z,32.07
2023-04-29T03:55:53.695Z,36.57
2023-04-29T04:00:55.624Z,36.30
2023-04-29T04:06:02.222Z,39.43
2023-04-29T04:11:04.096Z,46.93
2023-04-29T04:16:10.445Z,48.57
2023-04-29T04:21:12.650Z,45.50
2023-04-29T04:26:17.976Z,52.70
2023-04-29T04:31:22.239Z,58.00
2023-04-29T04:36:25.183Z,48.17
2023-04-29T04:41:27.268Z,52.07
2023-04-29T04:46:28.760Z,51.33
2023-04-29T04:51:44.088Z,51.47
2023-04-29T04:56:45.576Z,50.83
2023-04-29T05:01:47.038Z,43.43
2023-04-29T05:06:49.241Z,42.13
2023-04-29T05:11:53.628Z,38.13
2023-04-29T05:16:59.367Z,39.83
2023-04-29T05:22:01.631Z,40.77
2023-04-29T05:27:04.051Z,42.60
2023-04-29T05:32:05.538Z,44.53
2023-04-29T05:37:07.071Z,41.57
2023-04-29T05:42:22.675Z,38.83
2023-04-29T05:47:25.430Z,44.57
2023-04-29T05:52:26.771Z,37.87
2023-04-29T05:57:28.325Z,37.23
2023-04-29T06:02:30.387Z,37.20
2023-04-29T06:07:32.148Z,42.97
2023-04-29T06:12:46.287Z,36.33
2023-04-29T06:17:48.196Z,37.53
2023-04-29T06:22:49.651Z,37.97
2023-04-29T06:27:50.991Z,36.33
2023-04-29T06:32:55.538Z,35.23
2023-04-29T06:37:57.025Z,35.73
2023-04-29T06:43:24.684Z,31.13
2023-04-29T06:49:01.366Z,35.30
2023-04-29T06:54:03.275Z,35.43
2023-04-29T06:59:04.675Z,34.10
2023-04-29T07:04:06.308Z,37.97
2023-04-29T07:09:07.825Z,38.53
2023-04-29T07:14:11.551Z,37.47
2023-04-29T07:19:12.969Z,43.37
2023-04-29T07:24:14.392Z,41.20
2023-04-29T07:29:15.821Z,42.20
2023-04-29T07:34:17.405Z,41.43
2023-04-29T07:39:18.931Z,44.67
2023-04-29T07:44:23.325Z,46.10
2023-04-29T07:49:25.504Z,52.53
2023-04-29T07:54:27.223Z,49.20
2023-04-29T07:59:29.063Z,46.37
2023-04-29T08:04:30.967Z,42.03
2023-04-29T08:09:40.867Z,44.30
2023-04-29T08:14:44.444Z,47.10
2023-04-29T08:19:46.029Z,45.03
2023-04-29T08:24:47.945Z,39.10
2023-04-29T08:29:49.368Z,40.87
2023-04-29T08:34:50.884Z,35.67
2023-04-29T08:39:52.413Z,41.57
2023-04-29T08:44:54.080Z,36.00
2023-04-29T08:49:56.596Z,37.87
2023-04-29T08:54:59.252Z,37.10
2023-04-29T09:00:01.445Z,39.13
2023-04-29T09:05:10.388Z,33.17
2023-04-29T09:10:12.418Z,36.67
2023-04-29T09:15:13.606Z,38.13
2023-04-29T09:20:21.135Z,34.93
2023-04-29T09:25:22.955Z,31.47
2023-04-29T09:30:25.441Z,33.97
2023-04-29T09:35:27.792Z,33.90
2023-04-29T09:40:40.414Z,31.57
2023-04-29T09:45:48.777Z,29.57
2023-04-29T09:51:03.894Z,29.90
2023-04-29T09:56:05.797Z,30.95
2023-04-29T10:01:08.820Z,28.40
2023-04-29T10:06:10.518Z,24.05
2023-04-29T10:11:14.408Z,26.55
2023-04-29T10:16:28.732Z,28.42
2023-04-29T10:21:30.841Z,24.17
2023-04-29T10:26:36.698Z,27.63
2023-04-29T10:31:39.270Z,21.83
2023-04-29T10:36:40.637Z,23.20
2023-04-29T10:41:46.323Z,24.67
2023-04-29T10:46:47.704Z,21.85
2023-04-29T10:51:49.012Z,23.23
2023-04-29T10:56:52.110Z,16.75
2023-04-29T11:01:54.143Z,15.27
2023-04-29T11:07:02.224Z,16.92
2023-04-29T11:12:05.312Z,14.75
2023-04-29T11:17:16.801Z,15.93
2023-04-29T11:22:18.280Z,14.32
2023-04-29T11:27:24.752Z,15.85
2023-04-29T11:32:35.259Z,12.05
2023-04-29T11:37:36.874Z,13.55
2023-04-29T11:42:46.625Z,13.68
2023-04-29T11:47:48.814Z,12.90
2023-04-29T11:52:50.292Z,12.70
2023-04-29T11:57:51.893Z,12.57
2023-04-29T12:02:53.369Z,11.88
2023-04-29T12:07:54.821Z,12.10
2023-04-29T12:12:56.397Z,10.48
2023-04-29T12:17:58.097Z,14.75
2023-04-29T12:23:12.710Z,12.63
2023-04-29T12:28:14.842Z,13.52
2023-04-29T12:33:29.017Z,14.85
2023-04-29T12:38:31.096Z,13.60
2023-04-29T12:43:36.003Z,13.52
2023-04-29T12:48:38.476Z,13.90
2023-04-29T12:53:40.116Z,12.50
2023-04-29T12:58:41.636Z,11.45
2023-04-29T13:03:44.112Z,14.35
2023-04-29T13:08:45.462Z,11.70
2023-04-29T13:13:46.630Z,12.15
2023-04-29T13:18:59.018Z,12.43
2023-04-29T13:24:09.885Z,11.88
2023-04-29T13:29:11.112Z,10.90
2023-04-29T13:34:12.584Z,12.68
2023-04-29T13:39:14.946Z,11.00
2023-04-29T13:44:27.200Z,10.93
2023-04-29T13:54:58.897Z,11.23
2023-04-29T13:59:58.220Z,11.25
2023-04-29T14:05:00.138Z,11.07
2023-04-29T14:10:01.794Z,10.73
2023-04-29T14:15:03.810Z,10.85
2023-04-29T14:20:06.336Z,11.45
2023-04-29T14:25:08.644Z,12.63
2023-04-29T14:30:10.872Z,10.23
2023-04-29T14:35:12.255Z,10.75
2023-04-29T14:40:13.670Z,9.88
2023-04-29T14:45:16.415Z,8.82
2023-04-29T14:50:17.800Z,11.15
2023-04-29T14:55:19.092Z,8.88
2023-04-29T15:00:20.852Z,9.10
2023-04-29T15:05:23.042Z,9.32
2023-04-29T15:10:24.197Z,10.50
2023-04-29T15:15:25.583Z,9.45
2023-04-29T15:20:26.947Z,10.80
2023-04-29T15:25:28.466Z,13.20
2023-04-29T15:30:29.950Z,8.45
2023-04-29T15:35:31.887Z,12.40
2023-04-29T15:40:33.107Z,19.95
2023-04-29T15:45:34.401Z,11.18
2023-04-29T15:50:35.853Z,12.57
2023-04-29T15:55:37.305Z,13.10
2023-04-29T16:00:38.568Z,8.57
2023-04-29T16:05:40.158Z,11.50
2023-04-29T16:10:41.494Z,9.70
2023-04-29T16:15:42.953Z,12.10
2023-04-29T16:20:44.889Z,13.50
2023-04-29T16:25:46.321Z,10.65
2023-04-29T16:30:47.487Z,13.55
2023-04-29T16:35:49.057Z,9.82
2023-04-29T16:40:50.854Z,8.32
2023-04-29T16:45:52.616Z,11.45
2023-04-29T16:50:53.931Z,9.45
2023-04-29T16:55:55.567Z,8.02
2023-04-29T17:00:57.153Z,7.85
2023-04-29T17:05:58.975Z,8.98
2023-04-29T17:11:01.121Z,8.52
2023-04-29T17:16:02.423Z,10.73
2023-04-29T17:21:04.025Z,9.88
2023-04-29T17:26:06.727Z,9.98
2023-04-29T17:31:08.276Z,10.68
2023-04-29T17:36:09.788Z,9.25
2023-04-29T17:41:11.270Z,12.77
2023-04-29T17:46:12.658Z,9.77
2023-04-29T17:51:14.059Z,13.38
2023-04-29T17:56:15.408Z,10.93
2023-04-29T18:01:16.573Z,13.57
2023-04-29T18:06:18.486Z,9.48
2023-04-29T18:11:20.433Z,10.63
2023-04-29T18:16:22.047Z,9.82
2023-04-29T18:21:27.529Z,9.90
2023-04-29T18:26:29.131Z,12.40
2023-04-29T18:31:30.864Z,9.45
2023-04-29T18:36:33.048Z,10.85
2023-04-29T18:41:34.470Z,8.90
2023-04-29T18:46:36.066Z,11.63
2023-04-29T18:51:39.719Z,9.67
2023-04-29T18:56:43.912Z,12.90
2023-04-29T19:01:46.135Z,12.63
2023-04-29T19:06:48.132Z,11.97
2023-04-29T19:11:49.395Z,22.80
2023-04-29T19:16:50.660Z,18.10
2023-04-29T19:21:52.374Z,23.90
2023-04-29T19:26:53.772Z,18.77
2023-04-29T19:31:55.143Z,24.80
2023-04-29T19:36:56.811Z,23.77
2023-04-29T19:41:58.075Z,21.40
2023-04-29T19:46:59.370Z,22.57
2023-04-29T19:52:01.420Z,25.87
2023-04-29T19:57:02.955Z,25.90
2023-04-29T20:02:04.245Z,29.07
2023-04-29T20:07:06.025Z,30.47
2023-04-29T20:12:07.514Z,29.17
2023-04-29T20:17:08.933Z,25.83
2023-04-29T20:22:10.568Z,25.23
2023-04-29T20:27:11.758Z,30.37
2023-04-29T20:32:13.009Z,26.67
2023-04-29T20:37:14.374Z,29.30
2023-04-29T20:42:16.199Z,32.23
2023-04-29T20:47:17.570Z,26.07
2023-04-29T20:52:19.617Z,31.33
2023-04-29T20:57:21.000Z,31.93
2023-04-29T21:02:22.383Z,32.63
2023-04-29T21:07:23.806Z,36.17
2023-04-29T21:12:25.103Z,27.13
2023-04-29T21:17:26.586Z,28.17
2023-04-29T21:22:27.800Z,33.30
2023-04-29T21:27:29.268Z,34.10
2023-04-29T21:32:32.704Z,32.67
2023-04-29T21:37:34.249Z,37.40
2023-04-29T21:42:36.005Z,35.27
2023-04-29T21:47:37.460Z,37.47
2023-04-29T21:52:39.015Z,35.23
2023-04-29T21:57:44.082Z,31.03
2023-04-29T22:02:46.800Z,34.70
2023-04-29T22:07:48.493Z,34.10
2023-04-29T22:12:49.928Z,31.70
2023-04-29T22:17:51.221Z,33.33
2023-04-29T22:22:52.566Z,34.03
2023-04-29T22:27:53.770Z,33.33
2023-04-29T22:32:56.172Z,32.77
2023-04-29T22:37:57.578Z,40.37
2023-04-29T22:42:58.871Z,35.40
2023-04-29T22:48:00.125Z,35.20
2023-04-29T22:53:01.510Z,35.27
2023-04-29T22:58:02.943Z,34.97
2023-04-29T23:03:04.156Z,32.93
2023-04-29T23:08:06.095Z,35.27
2023-04-29T23:13:07.469Z,30.37
2023-04-29T23:18:09.070Z,33.00
2023-04-29T23:23:10.303Z,35.40
2023-04-29T23:28:12.394Z,37.30
2023-04-29T23:33:14.024Z,33.33
2023-04-29T23:38:15.335Z,33.57
2023-04-29T23:43:17.539Z,34.93
2023-04-29T23:48:18.912Z,31.57
2023-04-29T23:53:20.269Z,30.70
2023-04-29T23:58:21.448Z,28.63
